Time;durP1;ratioP1;P1;durP2;ratioP2;P2;SDS_P1;SDS_P2;PMS_P1;PMS_P2;Temp;Humidity;BMP_temperature;BMP_pressure;BME280_temperature;BME280_humidity;BME280_pressure;Samples;Min_cycle;Max_cycle;Signal;HPM_P1;HPM_P2
2021/12/19 00:01:52;;;;;;;6.72;4.10;;;;;;;;;;4861948;29;20576;-68
2021/12/19 00:04:28;;;;;;;6.88;3.88;;;;;;;;;;4862073;29;20045;-68
2021/12/19 00:09:39;;;;;;;7.03;3.90;;;;;;;;;;4861701;29;20400;-68
2021/12/19 00:12:05;;;;;;;7.95;4.45;;;;;;;;;;4861679;29;20075;-68
2021/12/19 00:14:31;;;;;;;9.00;5.80;;;;;;;;;;4861260;29;20034;-69
2021/12/19 00:16:58;;;;;;;10.27;4.97;;;;;;;;;;4861772;29;20527;-69
2021/12/19 00:19:23;;;;;;;9.50;5.20;;;;;;;;;;4860827;29;20041;-67
2021/12/19 00:21:50;;;;;;;9.90;5.82;;;;;;;;;;4857397;29;20052;-68
2021/12/19 00:24:16;;;;;;;7.78;5.00;;;;;;;;;;4853973;29;20030;-69
2021/12/19 00:26:42;;;;;;;6.60;3.78;;;;;;;;;;4861970;29;20040;-68
2021/12/19 00:29:08;;;;;;;7.70;5.18;;;;;;;;;;4863340;29;20033;-71
2021/12/19 00:31:34;;;;;;;8.73;4.88;;;;;;;;;;4864146;29;20033;-68
2021/12/19 00:34:01;;;;;;;6.28;4.00;;;;;;;;;;4861858;29;20413;-68
2021/12/19 00:36:27;;;;;;;8.55;4.22;;;;;;;;;;4861580;29;20030;-69
2021/12/19 00:38:53;;;;;;;9.60;3.78;;;;;;;;;;4861753;29;20034;-69
2021/12/19 00:41:19;;;;;;;7.68;3.78;;;;;;;;;;4860702;29;20496;-69
2021/12/19 00:43:52;;;;;;;4.35;2.75;;;;;;;;;;4861819;29;20045;-68
2021/12/19 00:46:19;;;;;;;4.93;2.40;;;;;;;;;;4861927;29;20041;-68
2021/12/19 00:48:48;;;;;;;4.40;2.47;;;;;;;;;;4860899;29;20040;-68
2021/12/19 00:51:18;;;;;;;4.03;2.30;;;;;;;;;;4861492;29;20444;-70
2021/12/19 00:53:45;;;;;;;3.30;1.90;;;;;;;;;;4861477;29;20042;-68
2021/12/19 00:56:12;;;;;;;2.50;1.80;;;;;;;;;;4861447;29;20493;-67
2021/12/19 00:58:38;;;;;;;4.20;2.13;;;;;;;;;;4861163;29;20041;-67
2021/12/19 01:01:06;;;;;;;4.57;2.33;;;;;;;;;;4861370;29;20523;-68
2021/12/19 01:03:34;;;;;;;3.83;2.20;;;;;;;;;;4861208;29;20074;-69
2021/12/19 01:06:00;;;;;;;4.60;2.13;;;;;;;;;;4861417;29;20441;-69
2021/12/19 01:08:26;;;;;;;3.58;2.20;;;;;;;;;;4861058;29;20116;-67
2021/12/19 01:10:52;;;;;;;3.35;1.80;;;;;;;;;;4860819;29;20540;-70
2021/12/19 01:13:20;;;;;;;3.92;2.40;;;;;;;;;;4860631;29;20042;-68
2021/12/19 01:15:47;;;;;;;9.57;2.70;;;;;;;;;;4860428;29;20033;-69
2021/12/19 01:18:13;;;;;;;4.65;2.30;;;;;;;;;;4860392;29;20061;-68
2021/12/19 01:20:40;;;;;;;4.65;2.33;;;;;;;;;;4860638;29;20039;-68
2021/12/19 01:23:08;;;;;;;4.95;2.78;;;;;;;;;;4861117;29;20101;-68
2021/12/19 01:25:35;;;;;;;4.57;2.60;;;;;;;;;;4860640;29;20120;-68
2021/12/19 01:28:01;;;;;;;3.58;2.30;;;;;;;;;;4860611;29;20052;-68
2021/12/19 01:30:26;;;;;;;3.33;2.38;;;;;;;;;;4860708;29;20041;-69
2021/12/19 01:32:53;;;;;;;3.67;2.58;;;;;;;;;;4860450;29;20426;-70
2021/12/19 01:35:21;;;;;;;6.63;3.33;;;;;;;;;;4860491;29;20449;-68
2021/12/19 01:37:47;;;;;;;5.53;2.85;;;;;;;;;;4860557;29;20437;-70
2021/12/19 01:40:15;;;;;;;5.05;2.90;;;;;;;;;;4860612;29;20033;-67
2021/12/19 01:42:43;;;;;;;6.32;3.60;;;;;;;;;;4860688;29;20041;-70
2021/12/19 01:45:12;;;;;;;6.13;3.63;;;;;;;;;;4860432;29;20041;-70
2021/12/19 01:47:39;;;;;;;5.60;3.60;;;;;;;;;;4860299;29;20064;-68
2021/12/19 01:50:07;;;;;;;10.45;3.65;;;;;;;;;;4860347;29;20029;-68
2021/12/19 01:52:33;;;;;;;5.85;4.05;;;;;;;;;;4860161;29;20048;-67
2021/12/19 01:54:59;;;;;;;6.90;4.30;;;;;;;;;;4861720;29;20034;-68
2021/12/19 01:57:27;;;;;;;6.05;4.10;;;;;;;;;;4876590;29;20046;-67
2021/12/19 01:59:54;;;;;;;5.97;3.40;;;;;;;;;;4860282;29;20029;-69
2021/12/19 02:02:21;;;;;;;5.97;3.63;;;;;;;;;;4860132;29;20101;-68
2021/12/19 02:04:47;;;;;;;5.22;3.33;;;;;;;;;;4860262;29;20378;-69
2021/12/19 02:07:13;;;;;;;5.78;3.50;;;;;;;;;;4860833;29;20413;-72
2021/12/19 02:09:44;;;;;;;7.95;3.20;;;;;;;;;;4860071;29;20081;-69
2021/12/19 02:12:11;;;;;;;6.88;3.45;;;;;;;;;;4860091;29;20464;-69
2021/12/19 02:14:37;;;;;;;8.07;4.35;;;;;;;;;;4859821;29;20034;-69
2021/12/19 02:17:04;;;;;;;7.13;3.70;;;;;;;;;;4859151;29;20072;-69
2021/12/19 02:19:31;;;;;;;8.38;3.78;;;;;;;;;;4859736;29;20061;-69
2021/12/19 02:21:57;;;;;;;6.63;3.75;;;;;;;;;;4860087;29;20038;-68
2021/12/19 02:24:23;;;;;;;6.85;3.70;;;;;;;;;;4860101;29;20126;-69
2021/12/19 02:26:49;;;;;;;7.45;3.83;;;;;;;;;;4860015;29;20437;-68
2021/12/19 02:29:15;;;;;;;7.25;4.30;;;;;;;;;;4858832;29;20029;-68
2021/12/19 02:31:42;;;;;;;4.40;3.08;;;;;;;;;;4860171;29;20168;-69
2021/12/19 02:34:15;;;;;;;7.15;4.35;;;;;;;;;;4859818;29;20061;-69
2021/12/19 02:37:07;;;;;;;5.85;3.63;;;;;;;;;;4859871;29;20034;-69
2021/12/19 02:50:12;;;;;;;4.78;2.75;;;;;;;;;;4859670;29;20049;-68
2021/12/19 02:52:38;;;;;;;3.72;2.35;;;;;;;;;;4859732;29;20429;-68
2021/12/19 02:55:06;;;;;;;3.28;2.25;;;;;;;;;;4859714;29;20025;-67
2021/12/19 02:57:32;;;;;;;4.10;2.63;;;;;;;;;;4859748;29;20097;-68
2021/12/19 02:59:58;;;;;;;3.90;2.63;;;;;;;;;;4858587;29;20053;-68
2021/12/19 03:02:24;;;;;;;4.65;2.78;;;;;;;;;;4859709;29;20492;-68
2021/12/19 03:05:00;;;;;;;7.00;3.55;;;;;;;;;;4859119;29;20033;-68
2021/12/19 03:07:26;;;;;;;8.65;5.38;;;;;;;;;;4859473;29;20441;-67
2021/12/19 03:10:12;;;;;;;8.48;5.05;;;;;;;;;;4859540;29;20030;-67
2021/12/19 03:17:58;;;;;;;6.43;4.07;;;;;;;;;;4859377;29;20128;-67
2021/12/19 03:20:26;;;;;;;10.68;5.32;;;;;;;;;;4859278;29;20038;-67
2021/12/19 03:22:51;;;;;;;10.85;4.72;;;;;;;;;;4859228;29;20503;-68
2021/12/19 03:25:18;;;;;;;6.10;3.97;;;;;;;;;;4859242;29;20485;-69
2021/12/19 03:27:45;;;;;;;7.60;4.30;;;;;;;;;;4861377;29;20029;-67
2021/12/19 03:30:11;;;;;;;7.97;4.55;;;;;;;;;;4862831;29;20508;-66
2021/12/19 03:32:36;;;;;;;5.38;3.22;;;;;;;;;;4862992;29;20097;-69
2021/12/19 03:35:04;;;;;;;6.55;2.92;;;;;;;;;;4862909;29;20037;-68
2021/12/19 03:37:30;;;;;;;4.25;2.60;;;;;;;;;;4862741;29;20025;-67
2021/12/19 03:40:07;;;;;;;3.67;2.50;;;;;;;;;;4892098;29;20044;-69
2021/12/19 03:42:35;;;;;;;7.20;2.85;;;;;;;;;;4862041;29;20053;-68
2021/12/19 03:45:01;;;;;;;5.50;3.35;;;;;;;;;;4862716;29;20540;-68
2021/12/19 03:47:27;;;;;;;4.55;2.55;;;;;;;;;;4863408;29;20036;-68
2021/12/19 03:49:53;;;;;;;3.90;2.38;;;;;;;;;;4863411;29;20041;-68
2021/12/19 03:52:19;;;;;;;6.25;3.70;;;;;;;;;;4877791;29;20037;-68
2021/12/19 03:54:45;;;;;;;4.75;2.50;;;;;;;;;;4863218;29;20026;-69
2021/12/19 03:57:11;;;;;;;8.02;3.33;;;;;;;;;;4863243;29;20033;-68
2021/12/19 03:59:37;;;;;;;6.22;3.33;;;;;;;;;;4863546;29;20038;-68
2021/12/19 04:02:03;;;;;;;4.40;2.42;;;;;;;;;;4863638;29;20045;-68
2021/12/19 04:04:35;;;;;;;6.18;3.10;;;;;;;;;;4861430;29;20029;-67
2021/12/19 04:07:01;;;;;;;7.53;2.47;;;;;;;;;;4863182;29;20509;-68
2021/12/19 04:09:27;;;;;;;5.03;2.70;;;;;;;;;;4863142;29;20037;-69
2021/12/19 04:11:55;;;;;;;5.63;3.30;;;;;;;;;;4862289;29;20049;-68
2021/12/19 04:14:21;;;;;;;7.22;2.60;;;;;;;;;;4855374;29;20033;-68
2021/12/19 04:16:47;;;;;;;5.72;2.40;;;;;;;;;;4863384;29;20400;-68
2021/12/19 04:19:13;;;;;;;4.13;2.30;;;;;;;;;;4863150;29;20030;-67
2021/12/19 04:21:39;;;;;;;4.78;2.30;;;;;;;;;;4863127;29;20084;-68
2021/12/19 04:24:06;;;;;;;3.78;2.03;;;;;;;;;;4862184;29;20048;-68
2021/12/19 04:26:32;;;;;;;5.00;2.60;;;;;;;;;;4857303;29;20037;-68
2021/12/19 04:28:57;;;;;;;5.05;2.83;;;;;;;;;;4857617;29;20022;-68
2021/12/19 04:31:23;;;;;;;4.40;2.80;;;;;;;;;;4862945;29;20048;-70
2021/12/19 04:33:49;;;;;;;4.28;2.80;;;;;;;;;;4862715;29;20030;-76
2021/12/19 04:36:23;;;;;;;6.00;3.35;;;;;;;;;;4871925;29;20045;-75
2021/12/19 04:39:19;;;;;;;;;;;;;;;;;;4872801;29;20034;-73
2021/12/19 04:58:13;;;;;;;6.80;3.60;;;;;;;;;;4842317;29;20054;-72
2021/12/19 05:01:01;;;;;;;7.18;4.03;;;;;;;;;;4861153;29;20489;-72
2021/12/19 05:03:45;;;;;;;9.85;4.13;;;;;;;;;;4861907;29;20096;-72
2021/12/19 05:16:33;;;;;;;6.07;3.65;;;;;;;;;;4862021;29;20116;-72
2021/12/19 05:19:06;;;;;;;7.93;4.18;;;;;;;;;;4861830;29;20140;-70
2021/12/19 05:21:34;;;;;;;7.53;3.92;;;;;;;;;;4861736;29;20045;-70
2021/12/19 05:26:25;;;;;;;8.45;4.07;;;;;;;;;;4861765;29;20037;-73
2021/12/19 05:28:52;;;;;;;5.93;3.97;;;;;;;;;;4861610;29;20089;-72
2021/12/19 05:31:19;;;;;;;7.88;4.57;;;;;;;;;;4861484;29;20548;-71
2021/12/19 05:33:47;;;;;;;7.35;3.90;;;;;;;;;;4861688;29;20161;-72
2021/12/19 05:46:57;;;;;;;6.90;3.97;;;;;;;;;;4851886;29;20092;-69
2021/12/19 05:49:23;;;;;;;8.57;5.00;;;;;;;;;;4861297;29;20041;-71
2021/12/19 05:51:49;;;;;;;8.55;4.50;;;;;;;;;;4861267;29;20400;-71
2021/12/19 05:54:15;;;;;;;9.07;4.72;;;;;;;;;;4861396;29;20053;-72
2021/12/19 05:56:42;;;;;;;9.20;5.45;;;;;;;;;;4861784;29;20049;-72
2021/12/19 05:59:09;;;;;;;7.25;5.30;;;;;;;;;;4861334;29;20025;-71
2021/12/19 06:01:43;;;;;;;7.78;4.97;;;;;;;;;;4861318;29;20045;-71
2021/12/19 06:04:10;;;;;;;7.80;4.70;;;;;;;;;;4855955;29;20042;-71
2021/12/19 06:06:36;;;;;;;6.55;4.13;;;;;;;;;;4859829;29;20030;-71
2021/12/19 06:09:02;;;;;;;8.20;4.38;;;;;;;;;;4860886;29;20044;-71
2021/12/19 06:11:28;;;;;;;7.50;4.20;;;;;;;;;;4860662;29;20049;-71
2021/12/19 06:13:54;;;;;;;8.25;4.93;;;;;;;;;;4860833;29;20100;-71
2021/12/19 06:16:20;;;;;;;8.98;5.22;;;;;;;;;;4860627;29;20556;-71
2021/12/19 06:18:47;;;;;;;8.38;4.05;;;;;;;;;;4860944;29;20038;-72
2021/12/19 06:21:12;;;;;;;8.25;4.20;;;;;;;;;;4861164;29;20021;-71
2021/12/19 06:23:39;;;;;;;6.03;3.83;;;;;;;;;;4861000;29;20396;-71
2021/12/19 06:26:05;;;;;;;9.35;4.32;;;;;;;;;;4860907;29;20362;-73
2021/12/19 06:28:31;;;;;;;10.25;5.57;;;;;;;;;;4860709;29;20450;-72
2021/12/19 06:30:56;;;;;;;13.50;5.05;;;;;;;;;;4860053;29;20041;-73
2021/12/19 06:33:22;;;;;;;8.93;4.65;;;;;;;;;;4874422;29;20095;-72
2021/12/19 06:35:48;;;;;;;11.85;5.75;;;;;;;;;;4855627;29;20086;-72
2021/12/19 06:38:15;;;;;;;10.30;5.78;;;;;;;;;;4854953;29;20117;-73
2021/12/19 06:40:41;;;;;;;12.25;6.78;;;;;;;;;;4860742;29;20037;-73
2021/12/19 06:43:10;;;;;;;10.13;6.07;;;;;;;;;;4860762;29;20489;-72
2021/12/19 06:45:35;;;;;;;9.82;6.53;;;;;;;;;;4890256;29;20034;-74
2021/12/19 06:48:01;;;;;;;20.10;10.98;;;;;;;;;;4860550;29;20034;-72
2021/12/19 06:50:27;;;;;;;8.15;5.65;;;;;;;;;;4860575;29;20484;-72
2021/12/19 06:52:53;;;;;;;9.93;5.95;;;;;;;;;;4868255;29;20525;-72
2021/12/19 06:55:19;;;;;;;11.40;5.75;;;;;;;;;;4878825;29;20103;-71
2021/12/19 06:57:46;;;;;;;8.90;5.40;;;;;;;;;;4878662;29;20049;-72
2021/12/19 07:00:15;;;;;;;13.55;8.15;;;;;;;;;;4878496;29;20025;-71
2021/12/19 07:02:42;;;;;;;12.57;7.72;;;;;;;;;;4880915;29;20033;-74
2021/12/19 07:05:08;;;;;;;13.40;7.90;;;;;;;;;;4882571;29;20089;-73
2021/12/19 07:07:34;;;;;;;12.35;7.32;;;;;;;;;;4881089;29;20066;-73
2021/12/19 07:10:00;;;;;;;10.50;6.72;;;;;;;;;;4881901;29;20449;-71
2021/12/19 07:12:27;;;;;;;10.25;6.75;;;;;;;;;;4881994;29;20079;-72
2021/12/19 07:14:53;;;;;;;14.10;8.80;;;;;;;;;;4882214;29;20036;-73
2021/12/19 07:17:19;;;;;;;13.10;8.48;;;;;;;;;;4882134;29;20037;-73
2021/12/19 07:19:45;;;;;;;14.98;8.93;;;;;;;;;;4882401;29;20047;-73
2021/12/19 07:22:11;;;;;;;13.23;8.05;;;;;;;;;;4881911;29;20056;-71
2021/12/19 07:24:37;;;;;;;13.73;7.97;;;;;;;;;;4882262;29;20085;-72
2021/12/19 07:27:03;;;;;;;15.73;7.60;;;;;;;;;;4881896;29;20037;-72
2021/12/19 07:29:30;;;;;;;11.30;6.30;;;;;;;;;;4881706;29;20037;-73
2021/12/19 07:31:57;;;;;;;16.38;7.88;;;;;;;;;;4881915;29;20124;-71
2021/12/19 07:34:29;;;;;;;14.00;7.25;;;;;;;;;;4881608;29;20036;-72
2021/12/19 07:36:55;;;;;;;15.02;7.60;;;;;;;;;;4881865;29;20092;-72
2021/12/19 07:39:40;;;;;;;15.43;6.88;;;;;;;;;;4881833;29;20041;-72
2021/12/19 07:42:09;;;;;;;13.68;6.43;;;;;;;;;;4882072;29;20480;-72
2021/12/19 07:44:36;;;;;;;14.18;6.57;;;;;;;;;;4862509;29;20072;-70
2021/12/19 07:47:03;;;;;;;14.15;6.40;;;;;;;;;;4859999;29;20129;-70
2021/12/19 07:49:29;;;;;;;14.43;6.68;;;;;;;;;;4867391;29;20036;-70
2021/12/19 07:51:55;;;;;;;16.88;7.30;;;;;;;;;;4879627;29;20041;-73
2021/12/19 07:54:21;;;;;;;10.43;5.80;;;;;;;;;;4880562;29;20524;-72
2021/12/19 07:56:48;;;;;;;9.68;5.18;;;;;;;;;;4879530;29;20053;-71
2021/12/19 07:59:14;;;;;;;7.82;5.07;;;;;;;;;;4880153;29;20028;-72
2021/12/19 08:01:40;;;;;;;9.98;5.75;;;;;;;;;;4879212;29;20646;-71
2021/12/19 08:04:06;;;;;;;9.13;5.13;;;;;;;;;;4879355;29;20025;-73
2021/12/19 08:06:31;;;;;;;9.57;5.07;;;;;;;;;;4879276;29;20040;-74
2021/12/19 08:09:07;;;;;;;13.40;6.53;;;;;;;;;;4860685;29;20085;-73
2021/12/19 08:11:39;;;;;;;18.42;9.55;;;;;;;;;;4861413;29;20061;-70
2021/12/19 08:14:07;;;;;;;7.85;5.15;;;;;;;;;;4861373;29;20089;-70
2021/12/19 08:16:33;;;;;;;12.02;5.90;;;;;;;;;;4865774;29;20029;-71
2021/12/19 08:18:59;;;;;;;10.43;6.07;;;;;;;;;;4864540;29;20042;-71
2021/12/19 08:21:25;;;;;;;9.75;6.40;;;;;;;;;;4862543;29;20477;-74
2021/12/19 08:23:50;;;;;;;8.88;6.07;;;;;;;;;;4862688;29;20109;-73
2021/12/19 08:26:16;;;;;;;11.98;6.45;;;;;;;;;;4862268;29;20033;-73
2021/12/19 08:28:42;;;;;;;8.90;6.18;;;;;;;;;;4862198;29;20045;-73
2021/12/19 08:31:08;;;;;;;11.50;6.38;;;;;;;;;;4862178;29;20338;-76
2021/12/19 08:33:34;;;;;;;12.68;7.18;;;;;;;;;;4862034;29;20065;-75
2021/12/19 08:36:01;;;;;;;10.82;5.82;;;;;;;;;;4862176;29;20037;-72
2021/12/19 08:38:27;;;;;;;11.48;6.28;;;;;;;;;;4861604;29;20492;-71
2021/12/19 08:40:53;;;;;;;7.38;5.03;;;;;;;;;;4861792;29;20038;-72
2021/12/19 08:43:20;;;;;;;8.63;5.10;;;;;;;;;;4878614;29;20045;-72
2021/12/19 08:45:46;;;;;;;7.78;4.63;;;;;;;;;;4880673;29;20048;-72
2021/12/19 08:48:12;;;;;;;9.70;4.80;;;;;;;;;;4880269;29;20048;-71
2021/12/19 08:50:39;;;;;;;7.88;4.10;;;;;;;;;;4878779;29;20045;-71
2021/12/19 08:53:06;;;;;;;6.13;4.07;;;;;;;;;;4880103;29;20056;-71
2021/12/19 08:55:32;;;;;;;9.27;4.68;;;;;;;;;;4880254;29;20024;-70
2021/12/19 08:57:58;;;;;;;7.80;4.55;;;;;;;;;;4880300;29;20037;-72
2021/12/19 09:00:24;;;;;;;9.07;5.15;;;;;;;;;;4880622;29;20032;-72
2021/12/19 09:02:53;;;;;;;8.95;4.53;;;;;;;;;;4879962;29;20033;-74
2021/12/19 09:05:20;;;;;;;6.45;4.30;;;;;;;;;;4879954;29;20025;-72
2021/12/19 09:07:50;;;;;;;10.38;5.05;;;;;;;;;;4879179;29;20105;-69
2021/12/19 09:10:16;;;;;;;10.27;4.57;;;;;;;;;;4880052;29;20078;-70
2021/12/19 09:12:42;;;;;;;9.70;4.47;;;;;;;;;;4879991;29;20041;-71
2021/12/19 09:15:08;;;;;;;7.43;4.03;;;;;;;;;;4880174;29;20044;-71
2021/12/19 09:17:34;;;;;;;6.45;3.72;;;;;;;;;;4864321;29;20033;-71
2021/12/19 09:19:59;;;;;;;5.88;4.00;;;;;;;;;;4861264;29;20029;-70
2021/12/19 09:22:25;;;;;;;6.70;4.03;;;;;;;;;;4862413;29;20037;-72
2021/12/19 09:24:51;;;;;;;5.40;3.83;;;;;;;;;;4861545;29;20037;-72
2021/12/19 09:27:17;;;;;;;5.30;3.30;;;;;;;;;;4861296;29;20360;-72
2021/12/19 09:29:43;;;;;;;5.43;3.30;;;;;;;;;;4861099;29;20067;-72
2021/12/19 09:32:08;;;;;;;5.63;3.38;;;;;;;;;;4860788;29;20033;-72
2021/12/19 09:34:34;;;;;;;8.23;4.38;;;;;;;;;;4860601;29;20032;-71
2021/12/19 09:37:00;;;;;;;7.45;4.15;;;;;;;;;;4861253;29;20453;-71
2021/12/19 09:39:27;;;;;;;5.70;3.38;;;;;;;;;;4861112;29;20041;-70
2021/12/19 09:41:56;;;;;;;7.65;4.13;;;;;;;;;;4861193;29;20045;-74
2021/12/19 09:44:22;;;;;;;6.10;3.88;;;;;;;;;;4860993;29;20087;-72
2021/12/19 09:46:50;;;;;;;4.43;3.10;;;;;;;;;;4860806;29;20037;-72
2021/12/19 09:49:18;;;;;;;5.10;2.60;;;;;;;;;;4860754;29;20503;-72
2021/12/19 09:51:45;;;;;;;4.78;3.10;;;;;;;;;;4861071;29;20056;-71
2021/12/19 09:54:12;;;;;;;6.47;3.30;;;;;;;;;;4860738;29;20055;-70
2021/12/19 09:56:39;;;;;;;4.47;2.70;;;;;;;;;;4860669;29;20030;-70
2021/12/19 09:59:14;;;;;;;4.40;2.78;;;;;;;;;;4860397;29;20117;-69
2021/12/19 10:01:40;;;;;;;7.20;5.00;;;;;;;;;;4860552;29;20476;-71
2021/12/19 10:04:37;;;;;;;4.88;3.22;;;;;;;;;;4860788;29;20025;-71
2021/12/19 10:07:05;;;;;;;4.53;3.20;;;;;;;;;;4861667;29;20053;-70
2021/12/19 10:09:31;;;;;;;5.05;3.50;;;;;;;;;;4878791;29;20033;-70
2021/12/19 10:12:11;;;;;;;4.82;3.33;;;;;;;;;;4878905;29;20396;-70
2021/12/19 10:14:38;;;;;;;5.45;3.35;;;;;;;;;;4878974;29;20041;-72
2021/12/19 10:17:07;;;;;;;9.23;3.42;;;;;;;;;;4879338;29;20121;-70
2021/12/19 10:19:52;;;;;;;5.93;3.30;;;;;;;;;;4863858;29;20053;-69
2021/12/19 10:22:37;;;;;;;6.28;3.10;;;;;;;;;;4859525;29;20056;-70
2021/12/19 10:25:23;;;;;;;6.85;3.38;;;;;;;;;;4859575;29;20044;-72
2021/12/19 10:28:04;;;;;;;8.50;4.15;;;;;;;;;;4860003;29;20048;-72
2021/12/19 10:30:38;;;;;;;6.05;3.80;;;;;;;;;;4860116;29;20046;-69
2021/12/19 10:33:07;;;;;;;5.03;2.90;;;;;;;;;;4859807;29;20065;-69
2021/12/19 10:35:55;;;;;;;5.03;3.35;;;;;;;;;;4859680;29;20022;-70
2021/12/19 10:38:28;;;;;;;5.45;3.10;;;;;;;;;;4858605;29;20113;-69
2021/12/19 10:41:12;;;;;;;4.38;2.70;;;;;;;;;;4859812;29;20061;-71
2021/12/19 10:43:50;;;;;;;4.80;2.95;;;;;;;;;;4841173;29;20038;-69
2021/12/19 10:46:37;;;;;;;5.22;3.13;;;;;;;;;;4841180;29;20663;-72
2021/12/19 10:49:05;;;;;;;5.90;2.35;;;;;;;;;;4877773;29;20408;-71
2021/12/19 10:51:36;;;;;;;4.13;2.38;;;;;;;;;;4859853;29;20469;-70
2021/12/19 10:54:04;;;;;;;4.60;2.70;;;;;;;;;;4859740;29;20037;-69
2021/12/19 10:56:33;;;;;;;7.03;3.28;;;;;;;;;;4860079;29;20041;-69
2021/12/19 10:59:01;;;;;;;7.53;2.97;;;;;;;;;;4859724;29;20029;-69
2021/12/19 11:01:29;;;;;;;3.78;2.78;;;;;;;;;;4873781;29;20086;-68
2021/12/19 11:03:59;;;;;;;4.75;2.42;;;;;;;;;;4859672;29;20041;-69
2021/12/19 11:06:31;;;;;;;3.63;2.50;;;;;;;;;;4859470;29;20041;-70
2021/12/19 11:08:59;;;;;;;7.05;3.60;;;;;;;;;;4859490;29;20038;-68
2021/12/19 11:11:32;;;;;;;5.35;2.72;;;;;;;;;;4859784;29;20053;-71
2021/12/19 11:13:59;;;;;;;;;;;;;;;;;;4860301;29;20037;-69
2021/12/19 11:16:25;;;;;;;6.32;3.40;;;;;;;;;;4859510;29;20379;-70
2021/12/19 11:18:51;;;;;;;9.70;5.05;;;;;;;;;;4859827;29;20034;-70
2021/12/19 11:21:18;;;;;;;9.73;4.13;;;;;;;;;;4859672;29;20029;-71
2021/12/19 11:23:46;;;;;;;4.20;2.90;;;;;;;;;;4859620;29;20041;-71
2021/12/19 11:26:12;;;;;;;3.67;2.72;;;;;;;;;;4858585;29;20029;-69
2021/12/19 11:28:38;;;;;;;5.90;2.85;;;;;;;;;;4859180;29;20029;-70
2021/12/19 11:31:05;;;;;;;17.50;8.55;;;;;;;;;;4859502;29;20033;-69
2021/12/19 11:33:46;;;;;;;6.53;4.03;;;;;;;;;;4859585;29;20041;-69
2021/12/19 11:36:14;;;;;;;5.88;3.17;;;;;;;;;;4859450;29;20033;-70
2021/12/19 11:38:43;;;;;;;8.32;4.10;;;;;;;;;;4859273;29;20064;-73
2021/12/19 11:41:09;;;;;;;12.23;5.95;;;;;;;;;;4859435;29;20041;-71
2021/12/19 11:43:37;;;;;;;6.60;4.32;;;;;;;;;;4856001;29;20081;-75
2021/12/19 11:46:11;;;;;;;7.88;4.40;;;;;;;;;;4871448;29;20030;-72
2021/12/19 11:48:38;;;;;;;5.90;3.70;;;;;;;;;;4861203;29;20471;-71
2021/12/19 11:51:07;;;;;;;7.72;4.70;;;;;;;;;;4862994;29;20436;-71
2021/12/19 11:53:39;;;;;;;5.05;2.85;;;;;;;;;;4862809;29;20040;-74
2021/12/19 11:56:09;;;;;;;6.43;3.17;;;;;;;;;;4861304;29;20037;-69
2021/12/19 11:58:49;;;;;;;4.93;3.05;;;;;;;;;;4860725;29;20033;-70
2021/12/19 12:01:33;;;;;;;5.70;3.17;;;;;;;;;;4858823;29;20045;-76
2021/12/19 12:04:23;;;;;;;4.78;2.67;;;;;;;;;;4842467;29;20113;-70
2021/12/19 12:06:59;;;;;;;5.22;2.33;;;;;;;;;;4851449;29;20438;-78
2021/12/19 12:09:32;;;;;;;4.40;2.70;;;;;;;;;;4849879;29;20037;-75
2021/12/19 12:12:03;;;;;;;6.30;2.85;;;;;;;;;;4848673;29;20050;-73
2021/12/19 12:14:36;;;;;;;5.38;3.33;;;;;;;;;;4844160;29;20033;-72
2021/12/19 12:17:08;;;;;;;9.70;5.72;;;;;;;;;;4843831;29;20121;-71
2021/12/19 12:19:52;;;;;;;4.65;2.80;;;;;;;;;;4843617;29;20531;-70
2021/12/19 12:25:02;;;;;;;7.72;3.33;;;;;;;;;;4842248;29;20042;-71
2021/12/19 12:27:44;;;;;;;5.20;3.40;;;;;;;;;;4842412;29;20489;-71
2021/12/19 12:30:22;;;;;;;11.23;6.75;;;;;;;;;;4856591;29;20104;-71
2021/12/19 12:32:48;;;;;;;18.27;11.25;;;;;;;;;;4861611;29;20045;-69
2021/12/19 12:35:16;;;;;;;7.28;3.50;;;;;;;;;;4862092;29;20025;-70
2021/12/19 12:37:43;;;;;;;16.77;7.93;;;;;;;;;;4862314;29;20401;-72
2021/12/19 12:40:18;;;;;;;7.07;3.45;;;;;;;;;;4862327;29;20026;-70
2021/12/19 12:42:57;;;;;;;7.00;4.07;;;;;;;;;;4862205;29;20120;-70
2021/12/19 12:45:25;;;;;;;6.35;3.22;;;;;;;;;;4861253;29;20081;-71
2021/12/19 12:47:51;;;;;;;6.65;3.75;;;;;;;;;;4859412;29;20392;-70
2021/12/19 12:50:17;;;;;;;15.65;10.40;;;;;;;;;;4860387;29;20038;-70
2021/12/19 12:52:43;;;;;;;6.13;2.70;;;;;;;;;;4861194;29;20366;-70
2021/12/19 12:55:09;;;;;;;5.93;3.78;;;;;;;;;;4861486;29;20062;-70
2021/12/19 12:57:40;;;;;;;6.80;3.58;;;;;;;;;;4861868;29;20120;-71
2021/12/19 13:00:16;;;;;;;5.60;3.30;;;;;;;;;;4861168;29;20056;-70
2021/12/19 13:02:44;;;;;;;6.07;2.63;;;;;;;;;;4861846;29;20040;-70
2021/12/19 13:05:11;;;;;;;11.52;6.15;;;;;;;;;;4861688;29;20093;-71
2021/12/19 13:07:38;;;;;;;6.75;3.78;;;;;;;;;;4861450;29;20061;-70
2021/12/19 13:10:05;;;;;;;6.03;4.22;;;;;;;;;;4861514;29;20069;-71
2021/12/19 13:12:36;;;;;;;5.35;3.47;;;;;;;;;;4861328;29;20045;-71
2021/12/19 13:15:11;;;;;;;7.50;5.00;;;;;;;;;;4861749;29;20034;-72
2021/12/19 13:17:38;;;;;;;7.07;3.42;;;;;;;;;;4861583;29;20048;-71
2021/12/19 13:20:08;;;;;;;8.98;3.70;;;;;;;;;;4861777;29;20532;-72
2021/12/19 13:22:46;;;;;;;4.65;2.80;;;;;;;;;;4861670;29;20477;-70
2021/12/19 13:25:16;;;;;;;6.50;3.72;;;;;;;;;;4861626;29;20033;-71
2021/12/19 13:27:48;;;;;;;5.28;3.28;;;;;;;;;;4861495;29;20492;-71
2021/12/19 13:30:32;;;;;;;12.23;5.10;;;;;;;;;;4861505;29;20037;-70
2021/12/19 13:33:09;;;;;;;14.20;5.95;;;;;;;;;;4861248;29;20034;-70
2021/12/19 13:35:42;;;;;;;9.70;5.80;;;;;;;;;;4861343;29;20034;-70
2021/12/19 13:38:15;;;;;;;14.00;7.30;;;;;;;;;;4861332;29;20101;-70
2021/12/19 13:40:41;;;;;;;;;;;;;;;;;;4861523;29;20038;-69
2021/12/19 13:43:13;;;;;;;11.93;5.55;;;;;;;;;;4861359;29;19916;-71
2021/12/19 13:45:49;;;;;;;18.15;9.85;;;;;;;;;;4861153;29;20033;-69
2021/12/19 13:48:21;;;;;;;11.88;6.28;;;;;;;;;;4861149;29;20037;-70
2021/12/19 13:51:05;;;;;;;18.63;9.18;;;;;;;;;;4861017;29;20184;-70
2021/12/19 13:53:33;;;;;;;12.48;5.57;;;;;;;;;;4860807;29;20393;-70
2021/12/19 13:56:06;;;;;;;11.35;5.78;;;;;;;;;;4861139;29;20033;-70
2021/12/19 13:58:36;;;;;;;8.57;4.68;;;;;;;;;;4861183;29;20080;-69
2021/12/19 14:01:22;;;;;;;10.50;6.00;;;;;;;;;;4861000;29;20035;-69
2021/12/19 14:04:14;;;;;;;21.13;10.55;;;;;;;;;;4860665;29;20061;-70
2021/12/19 14:06:40;;;;;;;15.88;10.00;;;;;;;;;;4858400;29;20049;-70
2021/12/19 14:09:19;;;;;;;12.05;6.40;;;;;;;;;;4860702;29;20021;-70
2021/12/19 14:11:50;;;;;;;12.25;7.00;;;;;;;;;;4859395;29;20050;-71
2021/12/19 14:17:06;;;;;;;15.40;6.63;;;;;;;;;;4860531;29;20112;-70
2021/12/19 14:19:35;;;;;;;13.63;6.93;;;;;;;;;;4859365;29;20042;-70
2021/12/19 14:22:06;;;;;;;16.05;7.22;;;;;;;;;;4860845;29;20040;-71
2021/12/19 14:24:38;;;;;;;10.13;6.47;;;;;;;;;;4860400;29;20117;-70
2021/12/19 14:27:13;;;;;;;12.23;6.20;;;;;;;;;;4860449;29;20037;-71
2021/12/19 14:29:41;;;;;;;10.55;5.97;;;;;;;;;;4860586;29;20069;-71
2021/12/19 14:32:16;;;;;;;11.27;6.38;;;;;;;;;;4860543;29;20033;-69
2021/12/19 14:34:54;;;;;;;11.00;5.32;;;;;;;;;;4860652;29;20113;-70
2021/12/19 14:37:31;;;;;;;10.80;5.68;;;;;;;;;;4860495;29;20470;-70
2021/12/19 14:40:06;;;;;;;14.63;7.63;;;;;;;;;;4882065;29;20060;-70
2021/12/19 14:42:37;;;;;;;12.80;6.97;;;;;;;;;;4877098;29;20117;-69
2021/12/19 14:45:31;;;;;;;15.05;7.03;;;;;;;;;;4876587;29;20052;-71
2021/12/19 14:48:05;;;;;;;11.90;6.80;;;;;;;;;;4877909;29;20033;-69
2021/12/19 14:50:35;;;;;;;12.65;7.20;;;;;;;;;;4877790;29;20044;-69
2021/12/19 14:53:17;;;;;;;10.75;7.03;;;;;;;;;;4878056;29;20037;-70
2021/12/19 14:55:47;;;;;;;13.40;6.70;;;;;;;;;;4877907;29;20124;-69
2021/12/19 14:58:14;;;;;;;12.45;6.28;;;;;;;;;;4877466;29;20487;-70
2021/12/19 15:00:42;;;;;;;12.23;6.85;;;;;;;;;;4877553;29;20120;-71
2021/12/19 15:03:10;;;;;;;14.73;7.90;;;;;;;;;;4877532;29;20040;-69
2021/12/19 15:05:38;;;;;;;15.57;7.93;;;;;;;;;;4877547;29;20033;-70
2021/12/19 15:08:07;;;;;;;17.40;8.68;;;;;;;;;;4877344;29;20029;-71
2021/12/19 15:10:33;;;;;;;17.65;8.57;;;;;;;;;;4877603;29;20093;-70
2021/12/19 15:12:59;;;;;;;21.23;10.25;;;;;;;;;;4877089;29;20132;-76
2021/12/19 15:15:25;;;;;;;20.20;10.93;;;;;;;;;;4877704;29;20123;-71
2021/12/19 15:17:50;;;;;;;19.40;10.65;;;;;;;;;;4877639;29;20068;-71
2021/12/19 15:20:17;;;;;;;15.07;8.43;;;;;;;;;;4877234;29;20045;-71
2021/12/19 15:22:43;;;;;;;15.23;8.45;;;;;;;;;;4877889;29;20494;-72
2021/12/19 15:25:10;;;;;;;22.30;10.10;;;;;;;;;;4880642;29;21229;-72
2021/12/19 15:27:37;;;;;;;20.30;11.18;;;;;;;;;;4880944;29;20048;-70
2021/12/19 15:30:05;;;;;;;20.67;11.30;;;;;;;;;;4880873;29;20041;-70
2021/12/19 15:32:31;;;;;;;18.08;10.48;;;;;;;;;;4881013;29;20028;-69
2021/12/19 15:34:57;;;;;;;19.33;10.68;;;;;;;;;;4880720;29;20510;-74
2021/12/19 15:37:22;;;;;;;21.70;11.48;;;;;;;;;;4879635;29;20059;-70
2021/12/19 15:39:48;;;;;;;22.50;11.82;;;;;;;;;;4881007;29;20104;-71
2021/12/19 15:42:14;;;;;;;23.55;12.90;;;;;;;;;;4880680;29;20029;-71
2021/12/19 15:44:41;;;;;;;24.70;12.23;;;;;;;;;;4881099;29;20033;-70
2021/12/19 15:47:07;;;;;;;18.67;11.20;;;;;;;;;;4880823;29;20058;-70
2021/12/19 15:49:33;;;;;;;15.45;9.85;;;;;;;;;;4880572;29;20041;-70
2021/12/19 15:51:59;;;;;;;18.98;11.10;;;;;;;;;;4880376;29;20033;-69
2021/12/19 15:54:29;;;;;;;22.05;12.30;;;;;;;;;;4880333;29;20040;-70